Portada
METAR-TAF:

METAR-TAF

Aeropuertos :

Gonabad, Irán

latitud: 34-22-51N, longitud: 58-38-23E, altitud: 1100 m

Observación

El informe se hizo hace 43 minutos, a las 23:00 UTC
Viento 10 kt del oeste-suroeste
Temperatura 2°C
Humedad 75%
Presión 1022 hPa

METAR: OIMD 142300Z AUTO 25010KT //// // ////// 02/M02 Q1022

Hora: 03:13 (23:43 UTC)


TAF: falta

Observaciones y pronósticos meteorológicos de más de 4000 aeropuertos (mensajes METAR y TAF).

Los puntos amarillos y rojos representan las estaciones disponibles.

Ponga el ratón en el punto deseado para ver el nombre de la estación.

Haga clic para ver las observaciones y los pronósticos meteorológicos.

Para cambiar el mapa : haga clic en los botones verdes con una cruz de color negro para hacer un zoom, en el botón verde con un guión para alejar o en las flechas verdes para mapas adyacentes.


METAR-TAF: